Página principal
METAR-TAF:

METAR-TAF

Aeroportos :

Majuro, Ilhas Marshall

latitude: 07-04N, longitude: 171-17E, altura: 2 m

Observação actual do tempo

O boletim foi feito há 3 horas e 52 minutos, às 00:54 UTC
Vento 10 kt de nordeste
Temperatura 30°C
Humidade 75%
Pressão 1010 hPa
Visibilidade: 24.1 km
Poucas nuvensa uma altura de 1600 ft
Nuvens dispersasa uma altura de 30000 ft

METAR: PKMJ 220054Z COR 05010KT 15SM FEW016 SCT300 30/25 A2982 RMK LAST

Hora: 16:46 (04:46 UTC)

Previsão

O boletim foi feito há 5 horas e 21 minutos, às 23:25 UTC
Previsão válida de 22 às 00 UTC a 22 às 24 UTC
Vento 10 kt de es-nordeste
Visibilidade: 10 km
Poucas nuvensa uma altura de 1600 ft
Nuvens dispersasa uma altura de 5000 ft

TAF: PKMJ 212325Z 2200/2224 07010KT P6SM FEW016 SCT050

Observações e previsões do tempo de mais de 4000 aeroportos (mensagens METAR e TAF).

As estações disponíveis são os pontos amarelos e vermelhos sobre o mapa.

Mova o rato sobre o mapa para ver o nome da estação.

Depois clique no ponto para visualizar as observações e previsões meteorológicas.

Para alterar o mapa : clique nos botões verdes com uma cruz preta para aumentar o zoom; no botão verde com uma pitada de zoom; ou nas setas verdes para mapas adjacentes.


METAR-TAF: